• Join FlightAware (Why Join?)
  • Login
  • US Flag 
07:33AM EDT


 

Airport Tracker/Info


-or-


 

Live Flight TrackerFlight Track Log ✈ EGF3675 ✈ 19-Apr-2013 ✈ KLAX - KDEN

Flight Track Log - Related Links

Times and Time Zones

All times are in EDT time to prevent confusion due to time zone crossing. See the EGF3675 flight status page for this flight to view local times or setup timezone preferences in your user account.

Time Position Orientation Groundspeed Altitude Reporting Facility
EDT Latitude Longitude Course Direction KTS MPH feet Rate Location/Type
07:31PM 33.9289 -118.4711 48° Northeast 202 232 2,700  Level Los Angeles Center
07:32PM 34.1189 -118.0955 59° Northeast  Level FlightAware Approximate
07:32PM 33.9003 -118.5483 246° West 257 296 4,900  Level Los Angeles Center
07:33PM 34.1837 -117.9660 59° Northeast  Level FlightAware Approximate
07:33PM 33.8350 -118.5169 158° South 280 322 7,700  Level Los Angeles Center
07:34PM 34.2547 -117.8526 68° East  Level FlightAware Approximate
07:34PM 33.8808 -118.4511 50° Northeast 270 311 10,000  Level Los Angeles Center
07:35PM 34.3162 -117.7258 55° Northeast  Level FlightAware Approximate
07:35PM 33.9467 -118.4061 30° Northeast 318 366 11,200  Level Los Angeles Center
07:36PM 34.3893 -117.6032 48° Northeast  Level FlightAware Approximate
07:36PM 34.0028 -118.3097 55° Northeast 347 399 13,000  Level Los Angeles Center
07:37PM 34.0744 -118.1836 56° Northeast 376 433 14,700 1,500 Climbing Los Angeles Center
07:38PM 34.1389 -118.0717 55° Northeast 400 460 16,200 1,440 Climbing Los Angeles Center
07:39PM 34.2042 -117.9556 56° Northeast 415 478 17,700 1,440 Climbing Los Angeles Center
07:40PM 34.2706 -117.8369 56° Northeast 424 488 19,200 1,080 Climbing Los Angeles Center
07:41PM 34.3383 -117.7150 56° Northeast 434 499 20,000 720 Climbing Los Angeles Center
07:42PM 34.4111 -117.5803 57° Northeast 450 518 20,800 480 Climbing Los Angeles Center
07:43PM 34.4803 -117.4561 56° Northeast 449 517 21,000 720 Climbing Los Angeles Center
07:44PM 34.5497 -117.3311 56° Northeast 450 518 22,400 1,140 Climbing Los Angeles Center
07:45PM 34.6347 -117.1747 57° Northeast 462 532 23,400 1,740 Climbing Los Angeles Center
07:46PM 34.7058 -117.0472 56° Northeast 460 529 26,000 1,740 Climbing Los Angeles Center
07:47PM 34.7731 -116.9231 57° Northeast 446 513 27,000 480 Climbing Los Angeles Center
07:48PM 34.8447 -116.7922 56° Northeast 466 536 27,000  Level Los Angeles Center
07:49PM 34.9194 -116.6533 57° Northeast 489 563 27,000 720 Level Los Angeles Center
07:51PM 35.0228 -116.4994 51° Northeast 490 564 28,500 1,500 Climbing Los Angeles Center
07:52PM 35.1114 -116.3903 45° Northeast 465 535 30,200 1,200 Climbing Los Angeles Center
07:53PM 35.1975 -116.2803 46° Northeast 453 521 31,000 360 Climbing Los Angeles Center
07:54PM 35.2878 -116.1678 45° Northeast 461 531 31,000  Level Los Angeles Center
07:55PM 35.3803 -116.0500 46° Northeast 476 548 31,000 720 Level Los Angeles Center
07:56PM 35.4917 -115.9117 45° Northeast 476 548 32,600 1,200 Climbing Los Angeles Center
07:57PM 35.5739 -115.8075 46° Northeast 463 533 33,600 900 Climbing Los Angeles Center
07:58PM 35.6619 -115.6961 46° Northeast 456 525 34,500 900 Climbing Los Angeles Center
07:59PM 35.7667 -115.5617 46° Northeast 456 525 35,500 780 Climbing Los Angeles Center
08:00PM 35.8539 -115.4494 46° Northeast 456 525 36,200 540 Climbing Los Angeles Center
08:01PM 35.9411 -115.3378 46° Northeast 455 524 36,700 360 Climbing Los Angeles Center
08:02PM 36.0278 -115.2264 46° Northeast 452 520 37,000 120 Climbing Los Angeles Center
08:03PM 36.1011 -115.0883 57° Northeast 490 564 37,000  Level Los Angeles Center
08:04PM 36.1606 -114.8956 69° East 505 581 37,000  Level Los Angeles Center
08:05PM 36.2097 -114.7347 69° East 503 579 37,000  Level Los Angeles Center
08:06PM 36.2583 -114.5714 70° East 506 582 37,000  Level Los Angeles Center
08:07PM 36.3089 -114.4078 69° East 509 586 37,000  Level Los Angeles Center
08:08PM 36.3578 -114.2453 69° East 506 582 37,000  Level Los Angeles Center
08:09PM 36.4186 -114.0472 69° East 512 589 37,000  Level Los Angeles Center
08:10PM 36.4664 -113.8822 70° East 510 587 37,000  Level Los Angeles Center
08:11PM 36.5172 -113.7103 70° East 513 590 37,000  Level Los Angeles Center
08:12PM 36.5669 -113.5444 69° East 514 592 37,000  Level Los Angeles Center
08:13PM 36.6147 -113.3789 70° East 512 589 37,000  Level Los Angeles Center
08:14PM 36.6636 -113.2119 70° East 515 593 37,000  Level Los Angeles Center
08:15PM 36.7122 -113.0447 70° East 517 595 37,000  Level Los Angeles Center
08:16PM 36.7697 -112.8436 70° East 516 594 37,000 240 Level Los Angeles Center
08:17PM 36.8175 -112.6758 70° East 517 595 37,500 720 Climbing Los Angeles Center
08:18PM 36.8642 -112.5108 70° East 512 589 38,500 720 Climbing Los Angeles Center
08:19PM 36.9089 -112.3525 71° East 498 573 39,000 240 Climbing Los Angeles Center
08:21PM 36.9531 -112.1961 70° East 486 559 39,000  Level Los Angeles Center
08:22PM 37.0056 -112.0086 71° East 482 555 39,000  Level Los Angeles Center
08:23PM 37.0486 -111.8519 71° East 480 552 39,000  Level Los Angeles Center
08:24PM 37.0917 -111.6967 71° East 477 549 39,000  Level Los Angeles Center
08:25PM 37.1347 -111.5433 71° East 471 542 39,000  Level Los Angeles Center
08:26PM 37.1750 -111.3883 72° East 470 541 39,000  Level Los Angeles Center
08:27PM 37.2250 -111.2033 71° East 469 540 39,000  Level Los Angeles Center
08:28PM 37.2658 -111.0494 72° East 469 540 39,000  Level Denver Center
08:29PM 37.3075 -110.8942 71° East 473 544 39,000  Level Denver Center
08:30PM 37.3561 -110.7092 72° East 467 537 39,000  Level Denver Center
08:31PM 37.3969 -110.5536 72° East 470 541 39,000  Level Denver Center
08:32PM 37.4372 -110.3994 72° East 467 537 39,000  Level Denver Center
08:33PM 37.4786 -110.2419 72° East 475 547 39,000  Level Denver Center
08:34PM 37.5247 -110.0650 72° East 482 555 39,000  Level Denver Center
08:35PM 37.5636 -109.9069 73° East 491 565 39,000  Level Denver Center
08:36PM 37.6108 -109.7219 72° East 495 570 39,000  Level Denver Center
08:37PM 37.6453 -109.5892 72° East 498 573 39,000  Level Denver Center
08:38PM 37.6992 -109.3769 72° East 498 573 39,000  Level Denver Center
08:39PM 37.7386 -109.2147 73° East 502 578 39,000  Level Denver Center
08:40PM 37.7781 -109.0547 73° East 500 575 39,000  Level Denver Center
08:41PM 37.8372 -108.8728 68° East 503 579 39,000  Level Denver Center
08:42PM 37.9072 -108.7303 58° Northeast 498 573 39,000  Level Denver Center
08:43PM 37.9889 -108.5631 58° Northeast 498 573 39,000  Level Denver Center
08:44PM 38.0586 -108.4194 58° Northeast 501 577 39,000  Level Denver Center
08:45PM 38.1392 -108.2517 59° Northeast 505 581 39,000  Level Denver Center
08:46PM 38.2078 -108.1056 59° Northeast 505 581 39,000  Level Denver Center
08:47PM 38.2778 -107.9606 58° Northeast 505 581 39,000  Level Denver Center
08:48PM 38.3578 -107.7931 59° Northeast 499 574 39,000  Level Denver Center
08:49PM 38.4269 -107.6475 59° Northeast 501 577 39,000 -540 Level Denver Center
08:51PM 38.5039 -107.4797 60° Northeast 495 570 37,900 -1,020 Descending Denver Center
08:52PM 38.5686 -107.3342 60° Northeast 494 568 37,000 -1,020 Descending Denver Center
08:53PM 38.6403 -107.1736 60° Northeast 485 558 35,900 -1,080 Descending Denver Center
08:54PM 38.7047 -107.0283 60° Northeast 474 545 34,800 -1,080 Descending Denver Center
08:55PM 38.7683 -106.8833 61° Northeast 468 539 33,800 -1,140 Descending Denver Center
08:56PM 38.8339 -106.7358 60° Northeast 476 548 32,500 -1,620 Descending Denver Center
08:57PM 38.9133 -106.5594 60° Northeast 481 554 30,500 -1,800 Descending Denver Center
08:58PM 38.9786 -106.4211 59° Northeast 475 547 28,900 -1,500 Descending Denver Center
08:59PM 39.0392 -106.2867 60° Northeast 459 528 27,400 -960 Descending Denver Center
09:00PM 39.1108 -106.1258 60° Northeast 456 525 27,000 -540 Descending Denver Center
09:01PM 39.1756 -105.9817 60° Northeast 460 529 26,400 -2,280 Descending Denver Center
09:02PM 39.2378 -105.8386 61° Northeast 455 524 22,400 -3,420 Descending Denver Center
09:03PM 39.3019 -105.6950 60° Northeast 456 525 19,400 -1,980 Descending Denver Center
09:04PM 39.3578 -105.5669 61° Northeast 409 471 18,400 -1,020 Descending Denver Center
09:05PM 39.3975 -105.4286 70° East 400 460 17,400 -1,140 Descending Denver Center
09:06PM 39.4036 -105.2950 87° East 377 434 16,100 -1,260 Descending Denver Center
09:07PM 39.4106 -105.1544 86° East 364 419 14,800 -1,200 Descending Denver Center
09:08PM 39.4161 -105.0267 87° East 359 413 13,700 -1,200 Descending Denver Center
09:09PM 39.4725 -104.9144 57° Northeast 346 398 12,400 -1,140 Descending Denver Center
09:10PM 39.5317 -104.8211 51° Northeast 338 389 11,400 -1,020 Descending Denver Center
09:11PM 39.6031 -104.7514 37° Northeast 320 368 10,300 -1,320 Descending Denver Center
09:12PM 39.6803 -104.7050 25° Northeast 287 330 8,800 -1,500 Descending Denver Center